Historique des mesures à Cassis (13260), France
Quotidien Résumé Janvier 31, 2018 Unités:  US    Métrique   Métrique/US
« Précédent (Jour)
Suivant (Jour) »
Quotidien Hebdomadaire Mensuel Annuel Période au choix
  Maximum: Minimum: Moyenne:
Température: TemperatureC °F 7.3 °F 10 °F
Point de rosée: DewpointC °F 4.1 °F 5.8 °F
Humidité: Humidity % 64 % 71 %
Vitesse du vent: WindSpeedKMH mph 0.0 mph 1.5 mph
Rafales: WindSpeedGustKMH mph - -
Vent:- - West
Pression: PressurehPa in 1013.4 in -
Précipitations: 0.0 in    
Historical Graphs
 
 
Mesures pour : Janvier 31, 2018
Heure Temperature Point de rosée Pression Vent Vitesse du vent Rafales Humidité Pluie (par heure) Conditions
TemperatureC °F DewpointC °F PressurehPa in Calm     Humidity % HourlyPrecipMM in SoftwareType W/m2
00:12 10.4 °F 6.3 °F 1023.2 in Calm     76 % 0.0 in open2300-1.11 W/m2
01:12 10.3 °F 6.2 °F 1023.2 in NW 3.2 mph 3.5 mph 76 % 0.0 in open2300-1.11 W/m2
02:12 9.3 °F 5.2 °F 1022.6 in NNW 4.3 mph 5.8 mph 76 % 0.0 in open2300-1.11 W/m2
03:12 8.6 °F 4.9 °F 1022.2 in Calm   7.9 mph 78 % 0.0 in open2300-1.11 W/m2
04:12 8.7 °F 5.2 °F 1021.6 in Calm     79 % 0.0 in open2300-1.11 W/m2
05:12 8.6 °F 5.2 °F 1020.9 in Calm     79 % 0.0 in open2300-1.11 W/m2
06:12 8.3 °F 4.9 °F 1020.9 in Calm     79 % 0.0 in open2300-1.11 W/m2
07:12 7.9 °F 4.5 °F 1020.9 in Calm     79 % 0.0 in open2300-1.11 W/m2
08:12 7.3 °F 4.1 °F 1021.2 in Calm     80 % 0.0 in open2300-1.11 W/m2
09:12 8.5 °F 5.3 °F 1020.9 in Calm     80 % 0.0 in open2300-1.11 W/m2
10:12 10.3 °F 6.8 °F 1020.5 in Calm   3.2 mph 79 % 0.0 in open2300-1.11 W/m2
11:12 11.2 °F 7.7 °F 1020.5 in South 3.2 mph 3.2 mph 79 % 0.0 in open2300-1.11 W/m2
12:12 12.6 °F 8.4 °F 1020.2 in West 4.0 mph 4.0 mph 76 % 0.0 in open2300-1.11 W/m2
13:12 12.1 °F 6.6 °F 1019.2 in NW 4.7 mph 5.0 mph 69 % 0.0 in open2300-1.11 W/m2
14:12 12.2 °F 6.2 °F 1018.2 in West 3.2 mph 4.0 mph 67 % 0.0 in open2300-1.11 W/m2
15:12 12.3 °F 5.7 °F 1017.8 in West 7.6 mph 13.0 mph 64 % 0.0 in open2300-1.11 W/m2
16:12 11.6 °F 5.7 °F 1017.2 in NNW 1.4 mph 13.0 mph 67 % 0.0 in open2300-1.11 W/m2
17:12 11.5 °F 6.0 °F 1016.1 in Calm     69 % 0.0 in open2300-1.11 W/m2
18:12 11.6 °F 6.3 °F 1015.8 in Calm     70 % 0.0 in open2300-1.11 W/m2
19:12 11.6 °F 6.6 °F 1015.5 in Calm     71 % 0.0 in open2300-1.11 W/m2
20:12 11.4 °F 6.6 °F 1015.1 in NNE 3.5 mph 3.5 mph 72 % 0.0 in open2300-1.11 W/m2
21:12 11.5 °F 6.7 °F 1014.1 in Calm     72 % 0.0 in open2300-1.11 W/m2
22:12 10.9 °F 6.3 °F 1013.8 in Calm     73 % 0.0 in open2300-1.11 W/m2
23:12 10.9 °F 6.4 °F 1013.4 in NW 2.1 mph 2.1 mph 74 % 0.0 in open2300-1.11 W/m2
Observations météo à CASSIS
WU-History script by Weather Underground - 1 mb